createdAt,value
2023-04-22T00:00:54.932Z,65.76
2023-04-22T00:03:24.212Z,65.93
2023-04-22T00:05:53.163Z,67.20
2023-04-22T00:08:22.006Z,68.33
2023-04-22T00:10:52.402Z,69.66
2023-04-22T00:13:21.251Z,69.71
2023-04-22T00:15:50.086Z,69.55
2023-04-22T00:18:18.843Z,68.37
2023-04-22T00:20:47.868Z,68.30
2023-04-22T00:23:16.724Z,68.61
2023-04-22T00:25:47.602Z,67.87
2023-04-22T00:28:17.707Z,67.41
2023-04-22T00:30:46.508Z,67.07
2023-04-22T00:33:15.338Z,67.11
2023-04-22T00:35:44.286Z,66.63
2023-04-22T00:38:13.214Z,66.45
2023-04-22T00:40:41.938Z,67.24
2023-04-22T00:43:10.977Z,68.99
2023-04-22T00:45:41.894Z,70.71
2023-04-22T00:48:10.825Z,71.45
2023-04-22T00:50:39.616Z,71.66
2023-04-22T00:53:08.364Z,71.63
2023-04-22T00:55:37.645Z,70.07
2023-04-22T00:58:06.935Z,69.32
2023-04-22T01:00:37.246Z,68.95
2023-04-22T01:03:08.984Z,68.03
2023-04-22T01:05:39.326Z,67.29
2023-04-22T01:08:08.119Z,67.93
2023-04-22T01:10:37.401Z,69.06
2023-04-22T01:13:06.969Z,70.42
2023-04-22T01:15:35.918Z,71.61
2023-04-22T01:18:06.590Z,71.92
2023-04-22T01:20:36.049Z,70.64
2023-04-22T01:23:10.217Z,69.71
2023-04-22T01:25:40.463Z,68.98
2023-04-22T01:28:09.592Z,68.52
2023-04-22T01:30:39.510Z,68.57
2023-04-22T01:33:10.825Z,69.35
2023-04-22T01:35:41.375Z,70.47
2023-04-22T01:38:14.043Z,71.54
2023-04-22T01:40:44.151Z,72.13
2023-04-22T01:43:12.973Z,70.45
2023-04-22T01:45:42.004Z,69.73
2023-04-22T01:48:11.546Z,69.40
2023-04-22T01:50:40.417Z,68.64
2023-04-22T01:53:10.597Z,68.65
2023-04-22T01:55:40.190Z,69.93
2023-04-22T01:58:10.840Z,70.06
2023-04-22T02:00:39.915Z,70.04
2023-04-22T02:03:08.805Z,69.44
2023-04-22T02:05:39.219Z,69.06
2023-04-22T02:08:08.217Z,69.80
2023-04-22T02:10:39.073Z,71.11
2023-04-22T02:13:10.698Z,71.23
2023-04-22T02:15:40.564Z,71.53
2023-04-22T02:18:10.232Z,71.00
2023-04-22T02:20:39.100Z,71.02
2023-04-22T02:23:08.219Z,72.09
2023-04-22T02:25:37.783Z,71.08
2023-04-22T02:28:06.754Z,71.02
2023-04-22T02:30:37.198Z,71.08
2023-04-22T02:33:06.087Z,72.01
2023-04-22T02:35:34.861Z,72.10
2023-04-22T02:38:03.621Z,72.16
2023-04-22T02:40:32.394Z,73.15
2023-04-22T02:43:01.439Z,72.14
2023-04-22T02:45:30.662Z,72.62
2023-04-22T02:48:01.328Z,72.76
2023-04-22T02:50:30.340Z,72.88
2023-04-22T02:52:59.343Z,72.85
2023-04-22T02:55:28.479Z,72.79
2023-04-22T02:57:57.307Z,73.43
2023-04-22T03:00:26.295Z,72.42
2023-04-22T03:02:55.693Z,72.08
2023-04-22T03:05:31.420Z,71.60
2023-04-22T03:08:00.535Z,71.40
2023-04-22T03:10:31.053Z,71.64
2023-04-22T03:12:59.875Z,71.30
2023-04-22T03:15:28.846Z,70.99
2023-04-22T03:17:57.687Z,71.31
2023-04-22T03:20:26.522Z,72.23
2023-04-22T03:22:57.364Z,71.85
2023-04-22T03:25:27.405Z,72.10
2023-04-22T03:27:57.719Z,72.48
2023-04-22T03:30:27.189Z,73.23
2023-04-22T03:32:57.293Z,72.17
2023-04-22T03:35:40.350Z,71.64
2023-04-22T03:38:11.716Z,71.03
2023-04-22T03:40:40.547Z,72.13
2023-04-22T03:43:22.293Z,71.47
2023-04-22T03:46:01.833Z,71.02
2023-04-22T03:48:35.583Z,71.27
2023-04-22T03:51:08.592Z,70.63
2023-04-22T03:53:41.122Z,71.67
2023-04-22T03:56:13.207Z,71.04
2023-04-22T03:58:46.598Z,70.48
2023-04-22T04:01:15.642Z,70.52
2023-04-22T04:03:48.761Z,70.49
2023-04-22T04:06:19.688Z,70.27
2023-04-22T04:08:52.821Z,70.15
2023-04-22T04:11:21.838Z,70.34
2023-04-22T04:13:51.860Z,70.44
2023-04-22T04:16:26.192Z,70.63
2023-04-22T04:19:03.605Z,70.36
2023-04-22T04:21:34.610Z,70.54
2023-04-22T04:24:05.514Z,70.39
2023-04-22T04:26:37.924Z,70.67
2023-04-22T04:29:16.887Z,70.53
2023-04-22T04:31:52.513Z,70.32
2023-04-22T04:34:21.345Z,69.76
2023-04-22T04:36:50.860Z,70.60
2023-04-22T04:39:33.254Z,70.29
2023-04-22T04:42:06.002Z,70.65
2023-04-22T04:44:52.286Z,70.41
2023-04-22T04:47:25.226Z,70.49
2023-04-22T04:49:59.436Z,70.32
2023-04-22T04:52:37.012Z,70.59
2023-04-22T04:55:08.772Z,70.68
2023-04-22T04:57:49.891Z,70.13
2023-04-22T05:00:19.816Z,70.21
2023-04-22T05:02:49.362Z,70.35
2023-04-22T05:05:20.651Z,71.00
2023-04-22T05:07:49.705Z,71.42
2023-04-22T05:10:21.097Z,71.44
2023-04-22T05:12:51.269Z,71.52
2023-04-22T05:15:25.326Z,71.25
2023-04-22T05:17:55.217Z,71.86
2023-04-22T05:20:24.230Z,71.80
2023-04-22T05:22:52.936Z,72.45
2023-04-22T05:25:25.463Z,72.79
2023-04-22T05:28:01.309Z,73.57
2023-04-22T05:30:36.165Z,73.17
2023-04-22T05:33:05.134Z,73.21
2023-04-22T05:35:36.319Z,72.76
2023-04-22T05:38:05.377Z,72.99
2023-04-22T05:40:36.897Z,73.24
2023-04-22T05:43:07.625Z,73.51
2023-04-22T05:45:37.714Z,73.47
2023-04-22T05:48:08.628Z,73.80
2023-04-22T05:50:44.244Z,73.94
2023-04-22T05:53:12.995Z,73.88
2023-04-22T05:55:43.514Z,74.12
2023-04-22T05:58:12.348Z,75.14
2023-04-22T06:01:03.477Z,75.02
2023-04-22T06:03:55.683Z,74.83
2023-04-22T06:06:26.009Z,75.32
2023-04-22T06:08:58.351Z,75.36
2023-04-22T06:11:30.437Z,75.32
2023-04-22T06:14:00.452Z,75.37
2023-04-22T06:16:29.983Z,75.71
2023-04-22T06:18:59.244Z,75.97
2023-04-22T06:21:28.660Z,75.85
2023-04-22T06:23:59.979Z,75.38
2023-04-22T06:26:31.622Z,76.12
2023-04-22T06:29:02.976Z,75.80
2023-04-22T06:31:31.855Z,76.26
2023-04-22T06:34:00.882Z,76.29
2023-04-22T06:36:30.911Z,76.14
2023-04-22T06:39:04.237Z,76.11
2023-04-22T06:41:57.722Z,75.97
2023-04-22T06:44:52.693Z,75.60
2023-04-22T06:47:50.822Z,75.67
2023-04-22T06:50:25.220Z,75.00
2023-04-22T06:52:58.576Z,74.97
2023-04-22T06:55:28.803Z,75.03
2023-04-22T06:57:59.028Z,75.06
2023-04-22T07:00:28.242Z,74.78
2023-04-22T07:02:57.326Z,74.06
2023-04-22T07:05:26.791Z,74.05
2023-04-22T07:07:55.604Z,73.72
2023-04-22T07:10:26.541Z,73.41
2023-04-22T07:13:16.252Z,72.92
2023-04-22T07:15:46.281Z,71.92
2023-04-22T07:18:15.483Z,71.60
2023-04-22T07:20:44.625Z,70.36
2023-04-22T07:23:13.696Z,69.71
2023-04-22T07:25:42.960Z,68.52
2023-04-22T07:28:12.157Z,68.07
2023-04-22T07:30:42.240Z,66.39
2023-04-22T07:33:11.405Z,64.42
2023-04-22T07:35:40.533Z,60.76
2023-04-22T07:38:10.599Z,61.03
2023-04-22T07:40:40.398Z,59.87
2023-04-22T07:43:09.181Z,58.84
2023-04-22T07:45:38.276Z,57.72
2023-04-22T07:48:08.441Z,56.31
2023-04-22T07:50:38.861Z,56.55
2023-04-22T07:53:07.752Z,55.18
2023-04-22T07:55:36.745Z,55.34
2023-04-22T07:58:06.948Z,55.75
2023-04-22T08:00:36.413Z,53.68
2023-04-22T08:03:06.128Z,53.89
2023-04-22T08:05:36.793Z,53.37
2023-04-22T08:08:06.384Z,52.28
2023-04-22T08:10:35.138Z,52.64
2023-04-22T08:13:04.941Z,49.35
2023-04-22T08:15:33.665Z,48.98
2023-04-22T08:18:02.850Z,46.87
2023-04-22T08:20:32.656Z,47.21
2023-04-22T08:23:03.259Z,45.58
2023-04-22T08:25:32.272Z,45.29
2023-04-22T08:28:00.985Z,44.31
2023-04-22T08:30:29.770Z,45.06
2023-04-22T08:32:58.990Z,44.98
2023-04-22T08:35:27.970Z,43.83
2023-04-22T08:37:56.660Z,43.22
2023-04-22T08:40:27.183Z,43.05
2023-04-22T08:42:57.117Z,42.48
2023-04-22T08:45:27.036Z,41.69
2023-04-22T08:47:57.226Z,41.28
2023-04-22T08:50:26.454Z,40.58
2023-04-22T08:52:55.759Z,42.18
2023-04-22T08:55:26.788Z,41.66
2023-04-22T08:57:56.770Z,41.65
2023-04-22T09:00:27.661Z,39.34
2023-04-22T09:02:59.024Z,40.32
2023-04-22T09:05:31.136Z,40.53
2023-04-22T09:08:01.222Z,38.79
2023-04-22T09:10:34.098Z,40.62
2023-04-22T09:13:06.049Z,39.09
2023-04-22T09:15:35.237Z,37.95
2023-04-22T09:18:05.610Z,39.12
2023-04-22T09:20:34.460Z,38.38
2023-04-22T09:23:08.950Z,37.28
2023-04-22T09:25:40.858Z,37.18
2023-04-22T09:28:18.437Z,35.11
2023-04-22T09:30:48.735Z,35.21
2023-04-22T09:33:17.776Z,37.32
2023-04-22T09:35:46.755Z,35.63
2023-04-22T09:38:15.542Z,36.17
2023-04-22T09:40:47.412Z,34.52
2023-04-22T09:43:20.869Z,36.00
2023-04-22T09:45:49.769Z,33.12
2023-04-22T09:48:20.824Z,33.04
2023-04-22T09:50:52.287Z,33.54
2023-04-22T09:53:23.141Z,32.92
2023-04-22T09:55:55.949Z,31.55
2023-04-22T09:58:25.836Z,32.97
2023-04-22T10:00:57.315Z,31.40
2023-04-22T10:03:26.312Z,33.37
2023-04-22T10:05:57.451Z,30.96
2023-04-22T10:08:26.959Z,30.52
2023-04-22T10:10:57.667Z,31.64
2023-04-22T10:13:26.529Z,32.33
2023-04-22T10:15:58.136Z,31.53
2023-04-22T10:18:29.608Z,33.02
2023-04-22T10:21:01.252Z,31.29
2023-04-22T10:23:34.549Z,31.33
2023-04-22T10:26:07.233Z,31.34
2023-04-22T10:28:37.126Z,30.47
2023-04-22T10:31:21.210Z,29.18
2023-04-22T10:34:09.908Z,30.44
2023-04-22T10:36:56.436Z,31.57
2023-04-22T10:39:26.991Z,33.10
2023-04-22T10:42:07.528Z,30.26
2023-04-22T10:44:53.778Z,28.77
2023-04-22T10:47:31.200Z,29.48
2023-04-22T10:50:16.110Z,30.73
2023-04-22T10:52:49.399Z,31.40
2023-04-22T10:55:18.232Z,29.24
2023-04-22T10:57:50.149Z,30.18
2023-04-22T11:00:41.656Z,28.29
2023-04-22T11:03:20.892Z,26.24
2023-04-22T11:05:50.109Z,27.82
2023-04-22T11:08:23.906Z,26.59
2023-04-22T11:10:55.361Z,27.63
2023-04-22T11:13:25.558Z,25.22
2023-04-22T11:15:57.066Z,25.64
2023-04-22T11:18:28.382Z,26.36
2023-04-22T11:20:58.118Z,26.46
2023-04-22T11:23:29.505Z,25.61
2023-04-22T11:26:02.244Z,26.59
2023-04-22T11:28:33.502Z,26.60
2023-04-22T11:31:07.970Z,28.35
2023-04-22T11:33:39.175Z,27.05
2023-04-22T11:36:13.397Z,25.68
2023-04-22T11:38:42.405Z,25.43
2023-04-22T11:41:11.355Z,25.34
2023-04-22T11:43:49.577Z,25.16
2023-04-22T11:46:29.219Z,25.22
2023-04-22T11:49:15.907Z,25.75
2023-04-22T11:51:56.502Z,24.53
2023-04-22T11:54:34.528Z,26.51
2023-04-22T11:57:08.300Z,22.35
2023-04-22T12:00:02.589Z,24.29
2023-04-22T12:02:33.291Z,25.05
2023-04-22T12:05:03.558Z,25.12
2023-04-22T12:07:34.081Z,24.97
2023-04-22T12:10:03.790Z,24.81
2023-04-22T12:12:35.581Z,24.96
2023-04-22T12:15:13.770Z,24.84
2023-04-22T12:17:46.021Z,23.75
2023-04-22T12:20:14.927Z,24.80
2023-04-22T12:22:43.743Z,25.30
2023-04-22T12:25:12.655Z,24.27
2023-04-22T12:27:41.467Z,22.42
2023-04-22T12:30:13.643Z,23.02
2023-04-22T12:32:42.662Z,24.46
2023-04-22T12:35:11.472Z,25.90
2023-04-22T12:37:40.347Z,23.10
2023-04-22T12:40:11.652Z,22.60
2023-04-22T12:42:40.679Z,22.58
2023-04-22T12:45:11.961Z,24.14
2023-04-22T12:47:40.624Z,22.10
2023-04-22T12:50:10.325Z,22.20
2023-04-22T12:52:39.107Z,19.92
2023-04-22T12:55:09.283Z,21.12
2023-04-22T12:57:38.009Z,19.78
2023-04-22T13:00:14.400Z,18.74
2023-04-22T13:02:44.172Z,19.10
2023-04-22T13:05:13.440Z,19.75
2023-04-22T13:07:44.308Z,20.32
2023-04-22T13:10:17.265Z,19.89
2023-04-22T13:12:45.996Z,19.08
2023-04-22T13:15:16.985Z,20.36
2023-04-22T13:17:47.600Z,19.76
2023-04-22T13:20:17.235Z,20.37
2023-04-22T13:22:46.470Z,19.78
2023-04-22T13:25:16.288Z,21.18
2023-04-22T13:27:45.071Z,20.36
2023-04-22T13:30:16.522Z,19.38
2023-04-22T13:32:45.890Z,19.51
2023-04-22T13:35:14.710Z,19.48
2023-04-22T13:37:43.510Z,20.09
2023-04-22T13:40:13.112Z,20.08
2023-04-22T13:42:42.080Z,19.47
2023-04-22T13:45:16.423Z,18.48
2023-04-22T13:47:47.532Z,19.82
2023-04-22T13:50:19.639Z,20.43
2023-04-22T13:52:50.584Z,18.70
2023-04-22T13:55:20.114Z,19.35
2023-04-22T13:57:49.641Z,19.99
2023-04-22T14:00:19.183Z,20.24
2023-04-22T14:02:49.915Z,20.52
2023-04-22T14:05:18.942Z,20.38
2023-04-22T14:07:47.610Z,19.76
2023-04-22T14:10:17.921Z,20.43
2023-04-22T14:12:46.794Z,19.01
2023-04-22T14:15:15.560Z,18.69
2023-04-22T14:17:49.246Z,18.58
2023-04-22T14:20:19.468Z,19.18
2023-04-22T14:22:48.673Z,19.47
2023-04-22T14:25:17.401Z,19.13
2023-04-22T14:27:46.311Z,18.71
2023-04-22T14:30:17.365Z,18.85
2023-04-22T14:32:46.199Z,17.75
2023-04-22T14:35:14.966Z,18.45
2023-04-22T14:37:45.248Z,18.73
2023-04-22T14:40:14.519Z,17.56
2023-04-22T14:42:43.786Z,17.65
2023-04-22T14:45:14.767Z,16.59
2023-04-22T14:47:43.628Z,17.25
2023-04-22T14:50:13.077Z,18.07
2023-04-22T14:52:42.036Z,19.33
2023-04-22T14:55:22.699Z,18.51
2023-04-22T14:57:56.668Z,18.38
2023-04-22T15:00:26.356Z,19.92
2023-04-22T15:02:58.715Z,21.01
2023-04-22T15:05:27.809Z,20.24
2023-04-22T15:07:57.821Z,20.46
2023-04-22T15:10:29.687Z,20.10
2023-04-22T15:12:58.791Z,20.60
2023-04-22T15:15:28.084Z,20.55
2023-04-22T15:17:57.005Z,22.74
2023-04-22T15:20:26.000Z,20.37
2023-04-22T15:22:54.839Z,23.00
2023-04-22T15:25:24.512Z,22.45
2023-04-22T15:27:56.677Z,22.14
2023-04-22T15:30:26.322Z,23.38
2023-04-22T15:32:55.835Z,22.84
2023-04-22T15:35:25.449Z,23.78
2023-04-22T15:37:55.048Z,23.93
2023-04-22T15:40:24.185Z,25.00
2023-04-22T15:42:55.459Z,24.48
2023-04-22T15:45:24.108Z,24.99
2023-04-22T15:47:53.976Z,26.34
2023-04-22T15:50:23.600Z,27.05
2023-04-22T15:52:52.424Z,25.43
2023-04-22T15:55:21.660Z,27.66
2023-04-22T15:57:50.443Z,27.10
2023-04-22T16:00:21.581Z,25.89
2023-04-22T16:02:55.737Z,26.99
2023-04-22T16:05:27.186Z,26.59
2023-04-22T16:07:57.335Z,27.30
2023-04-22T16:10:27.053Z,28.38
2023-04-22T16:12:55.827Z,27.88
2023-04-22T16:15:27.233Z,28.09
2023-04-22T16:17:55.999Z,28.85
2023-04-22T16:20:25.363Z,28.53
2023-04-22T16:22:54.476Z,28.66
2023-04-22T16:25:23.261Z,29.25
2023-04-22T16:27:52.129Z,30.17
2023-04-22T16:30:21.116Z,29.86
2023-04-22T16:32:52.502Z,31.25
2023-04-22T16:35:21.569Z,33.42
2023-04-22T16:37:50.440Z,31.26
2023-04-22T16:40:20.654Z,30.55
2023-04-22T16:42:49.357Z,30.41
2023-04-22T16:45:18.463Z,31.99
2023-04-22T16:47:47.538Z,31.36
2023-04-22T16:50:17.918Z,31.70
2023-04-22T16:52:46.602Z,33.26
2023-04-22T16:55:15.756Z,33.29
2023-04-22T16:57:47.635Z,32.86
2023-04-22T17:00:17.054Z,34.25
2023-04-22T17:02:46.676Z,34.42
2023-04-22T17:05:15.457Z,34.94
2023-04-22T17:07:45.918Z,33.57
2023-04-22T17:10:14.774Z,34.20
2023-04-22T17:12:46.360Z,34.53
2023-04-22T17:15:16.417Z,35.29
2023-04-22T17:17:45.408Z,35.04
2023-04-22T17:20:14.489Z,36.12
2023-04-22T17:22:44.701Z,37.44
2023-04-22T17:25:13.396Z,36.62
2023-04-22T17:27:42.103Z,36.12
2023-04-22T17:30:12.019Z,37.06
2023-04-22T17:32:43.038Z,36.84
2023-04-22T17:35:12.015Z,37.87
2023-04-22T17:37:41.172Z,38.47
2023-04-22T17:40:12.434Z,38.32
2023-04-22T17:42:46.363Z,38.90
2023-04-22T17:45:15.510Z,39.30
2023-04-22T17:47:45.319Z,41.28
2023-04-22T17:50:14.134Z,39.69
2023-04-22T17:52:43.042Z,42.06
2023-04-22T17:55:13.668Z,42.99
2023-04-22T17:57:42.380Z,42.96
2023-04-22T18:00:15.096Z,42.81
2023-04-22T18:02:44.772Z,44.01
2023-04-22T18:05:13.990Z,43.07
2023-04-22T18:07:42.695Z,43.03
2023-04-22T18:10:14.326Z,43.47
2023-04-22T18:12:43.036Z,44.79
2023-04-22T18:15:12.253Z,44.62
2023-04-22T18:17:41.410Z,45.21
2023-04-22T18:20:18.004Z,45.14
2023-04-22T18:22:50.172Z,45.01
2023-04-22T18:25:21.024Z,45.18
2023-04-22T18:27:54.974Z,45.64
2023-04-22T18:30:24.055Z,47.17
2023-04-22T18:32:53.759Z,47.86
2023-04-22T18:35:23.435Z,49.13
2023-04-22T18:37:53.576Z,48.25
2023-04-22T18:40:23.940Z,47.71
2023-04-22T18:42:53.275Z,49.31
2023-04-22T18:45:23.534Z,50.46
2023-04-22T18:47:52.862Z,49.74
2023-04-22T18:50:22.760Z,49.83
2023-04-22T18:52:52.816Z,50.49
2023-04-22T18:55:26.917Z,50.13
2023-04-22T18:57:55.633Z,50.28
2023-04-22T19:00:24.350Z,50.37
2023-04-22T19:02:53.143Z,50.30
2023-04-22T19:05:22.955Z,50.55
2023-04-22T19:07:51.994Z,50.86
2023-04-22T19:10:20.958Z,50.57
2023-04-22T19:12:51.063Z,51.46
2023-04-22T19:15:21.455Z,50.51
2023-04-22T19:17:50.235Z,51.55
2023-04-22T19:20:20.304Z,51.78
2023-04-22T19:22:49.092Z,51.07
2023-04-22T19:25:18.798Z,52.00
2023-04-22T19:27:47.722Z,51.97
2023-04-22T19:30:17.957Z,52.61
2023-04-22T19:32:47.808Z,53.76
2023-04-22T19:35:16.896Z,52.64
2023-04-22T19:37:45.878Z,52.95
2023-04-22T19:40:18.056Z,52.60
2023-04-22T19:42:48.789Z,53.28
2023-04-22T19:45:21.166Z,54.33
2023-04-22T19:47:50.828Z,54.02
2023-04-22T19:50:20.606Z,53.71
2023-04-22T19:52:52.131Z,53.31
2023-04-22T19:55:21.374Z,53.59
2023-04-22T19:57:57.612Z,53.92
2023-04-22T20:00:28.339Z,53.84
2023-04-22T20:02:58.735Z,54.79
2023-04-22T20:05:28.793Z,56.22
2023-04-22T20:08:00.149Z,56.15
2023-04-22T20:10:30.734Z,56.77
2023-04-22T20:13:00.627Z,56.71
2023-04-22T20:15:31.523Z,55.84
2023-04-22T20:18:01.885Z,56.05
2023-04-22T20:20:35.624Z,55.84
2023-04-22T20:23:10.591Z,55.91
2023-04-22T20:25:45.739Z,55.77
2023-04-22T20:28:16.209Z,55.84
2023-04-22T20:30:47.208Z,55.29
2023-04-22T20:33:17.965Z,55.21
2023-04-22T20:35:48.025Z,55.80
2023-04-22T20:38:19.535Z,55.46
2023-04-22T20:40:48.925Z,55.74
2023-04-22T20:43:17.592Z,56.04
2023-04-22T20:45:47.968Z,55.82
2023-04-22T20:48:16.607Z,55.14
2023-04-22T20:50:46.192Z,55.16
2023-04-22T20:53:14.904Z,55.68
2023-04-22T20:55:43.917Z,56.79
2023-04-22T20:58:12.674Z,57.23
2023-04-22T21:00:41.346Z,57.98
2023-04-22T21:03:11.956Z,57.59
2023-04-22T21:05:44.589Z,58.75
2023-04-22T21:08:23.136Z,60.34
2023-04-22T21:10:55.062Z,60.14
2023-04-22T21:13:24.773Z,59.42
2023-04-22T21:16:00.268Z,59.33
2023-04-22T21:18:33.541Z,58.91
2023-04-22T21:21:04.924Z,58.27
2023-04-22T21:23:35.492Z,58.33
2023-04-22T21:26:05.963Z,58.97
2023-04-22T21:28:35.472Z,59.32
2023-04-22T21:31:05.115Z,58.82
2023-04-22T21:33:35.344Z,58.37
2023-04-22T21:36:04.386Z,58.68
2023-04-22T21:38:33.034Z,60.38
2023-04-22T21:41:01.811Z,60.60
2023-04-22T21:43:30.735Z,61.46
2023-04-22T21:45:59.402Z,60.42
2023-04-22T21:48:28.180Z,60.73
2023-04-22T21:50:58.336Z,59.93
2023-04-22T21:53:27.114Z,60.01
2023-04-22T21:55:55.784Z,59.69
2023-04-22T21:58:24.539Z,59.21
2023-04-22T22:00:53.461Z,58.97
2023-04-22T22:03:22.273Z,59.36
2023-04-22T22:05:51.143Z,59.85
2023-04-22T22:08:21.390Z,59.52
2023-04-22T22:10:50.098Z,59.58
2023-04-22T22:13:18.731Z,59.29
2023-04-22T22:15:47.813Z,59.83
2023-04-22T22:18:16.682Z,59.68
2023-04-22T22:20:46.499Z,59.41
2023-04-22T22:23:15.215Z,59.39
2023-04-22T22:25:45.299Z,59.99
2023-04-22T22:28:13.951Z,60.07
2023-04-22T22:30:42.675Z,60.15
2023-04-22T22:33:11.501Z,60.44
2023-04-22T22:35:40.997Z,60.42
2023-04-22T22:38:10.084Z,60.36
2023-04-22T22:40:38.708Z,60.31
2023-04-22T22:43:09.037Z,60.13
2023-04-22T22:45:37.866Z,60.49
2023-04-22T22:48:07.489Z,60.68
2023-04-22T22:50:36.240Z,60.87
2023-04-22T22:53:04.893Z,61.42
2023-04-22T22:55:34.054Z,61.58
2023-04-22T22:58:03.059Z,61.36
2023-04-22T23:00:33.220Z,61.20
2023-04-22T23:03:02.080Z,61.18
2023-04-22T23:05:31.153Z,61.21
2023-04-22T23:07:59.804Z,61.00
2023-04-22T23:10:28.461Z,61.43
2023-04-22T23:12:57.165Z,62.04
2023-04-22T23:15:26.037Z,62.12
2023-04-22T23:17:56.285Z,62.02
2023-04-22T23:20:26.646Z,62.72
2023-04-22T23:22:55.907Z,63.71
2023-04-22T23:25:25.475Z,63.49
2023-04-22T23:27:54.812Z,63.69
2023-04-22T23:30:24.944Z,64.47
2023-04-22T23:32:58.626Z,64.26
2023-04-22T23:35:28.308Z,64.45
2023-04-22T23:38:00.057Z,64.30
2023-04-22T23:40:29.826Z,64.63
2023-04-22T23:42:58.471Z,64.69
2023-04-22T23:45:27.464Z,64.51
2023-04-22T23:47:57.639Z,64.67
2023-04-22T23:50:26.320Z,65.19
2023-04-22T23:52:54.979Z,66.19
2023-04-22T23:55:24.743Z,66.83
2023-04-22T23:57:54.249Z,66.17
